»·PEaware :: SWA1391 KLAX-KSJC

SWA1391 :: KLAX-KSJC

FLIGHT INFORMATION

Flight Status: Arrived
Operator:
Southwest Airlines
More flights by this operator :: More flights under this callsign
Pilot: Charles D. (23067)
Aircraft: BOEING 737-800
(B738)
More flights by this aircraft type
Origin: KLAX Los Angeles Intl
United States
Destination: KSJC Mineta San Jose Intl
United States
More flights between these airports :: More routes between these airports
Route: +SUMMR2 SCTRR TROXX SILCN4
File this flight plan on PilotEdge
Remarks: RMK / SIMBRIEF
Altitude:
(Current/Filed)
30,000ft
Speed:
(Current/Filed)
427kts
Departed: 20-Dec-19 10:13 AM
Arrived: 20-Dec-19 11:01 AM
Distance/Time
Traveled:
268nm/0:48
Distance/Time
To Go:
Arrived

Flight Plot

Page will automatically refresh every two minutes.

Flight plan parsing failed; only flown route is shown


Map Options




Map Legend


Flown Route
Filed Route
Departure Airport
Arrival Airport
Navaid (VOR, NDB)
Fix

Horizontal Profiles

Position Reports

Time Latitude Longitude Heading Altitude Ground
Speed
20-Dec-19 09:54 33.946559 -118.400662 274 117ft 0kts
20-Dec-19 09:55 33.946559 -118.400662 274 117ft 0kts
20-Dec-19 09:56 33.946559 -118.400662 274 117ft 0kts
20-Dec-19 09:57 33.946559 -118.400662 274 117ft 0kts
20-Dec-19 09:58 33.946559 -118.400662 274 117ft 0kts
20-Dec-19 09:59 33.946559 -118.400662 274 117ft 0kts
20-Dec-19 10:00 33.946559 -118.400662 274 117ft 0kts
20-Dec-19 10:01 33.946559 -118.400662 274 117ft 0kts
20-Dec-19 10:02 33.946580 -118.400543 226 117ft 2kts
20-Dec-19 10:03 33.946747 -118.400096 327 116ft 0kts
20-Dec-19 10:04 33.946667 -118.400052 331 116ft 0kts
20-Dec-19 10:05 33.946667 -118.400052 331 116ft 0kts
20-Dec-19 10:06 33.946667 -118.400052 331 116ft 0kts
20-Dec-19 10:07 33.947617 -118.400157 4 117ft 11kts
20-Dec-19 10:08 33.948056 -118.400158 347 117ft 0kts
20-Dec-19 10:09 33.948056 -118.400158 347 117ft 0kts
20-Dec-19 10:10 33.948948 -118.400629 10 117ft 12kts
20-Dec-19 10:11 33.950358 -118.399436 297 116ft 25kts
20-Dec-19 10:12 33.945316 -118.448658 264 2550ft 201kts
20-Dec-19 10:13 33.940520 -118.534316 265 4971ft 286kts
20-Dec-19 10:14 33.933044 -118.626577 265 6495ft 279kts
20-Dec-19 10:15 33.925879 -118.718753 264 10757ft 302kts
20-Dec-19 10:16 33.917417 -118.829685 267 14050ft 351kts
20-Dec-19 10:17 33.920545 -118.949432 269 18009ft 360kts
20-Dec-19 10:18 33.948244 -119.065384 296 21517ft 376kts
20-Dec-19 10:19 34.006403 -119.173747 309 23283ft 398kts
20-Dec-19 10:20 34.092471 -119.257392 321 26393ft 403kts
20-Dec-19 10:21 34.180548 -119.332994 321 28718ft 411kts
20-Dec-19 10:22 34.274907 -119.414423 321 30260ft 425kts
20-Dec-19 10:23 34.371706 -119.498153 321 30273ft 428kts
20-Dec-19 10:24 34.465749 -119.583574 318 30279ft 423kts
20-Dec-19 10:25 34.558749 -119.671558 318 30288ft 429kts
20-Dec-19 10:26 34.652086 -119.759798 318 30284ft 426kts
20-Dec-19 10:27 34.745241 -119.848083 318 30292ft 421kts
20-Dec-19 10:28 34.838137 -119.936410 318 30301ft 425kts
20-Dec-19 10:29 34.930564 -120.024549 318 30301ft 423kts
20-Dec-19 10:30 35.023597 -120.113486 318 30295ft 414kts
20-Dec-19 10:31 35.113228 -120.199507 318 30292ft 423kts
20-Dec-19 10:32 35.204854 -120.286608 319 30288ft 418kts
20-Dec-19 10:33 35.298355 -120.371890 319 30293ft 418kts
20-Dec-19 10:34 35.391260 -120.457075 319 30295ft 416kts
20-Dec-19 10:35 35.484305 -120.542665 319 30313ft 418kts
20-Dec-19 10:36 35.579911 -120.623736 323 30322ft 421kts
20-Dec-19 10:37 35.678665 -120.701025 323 30330ft 421kts
20-Dec-19 10:38 35.776775 -120.778189 323 30334ft 422kts
20-Dec-19 10:39 35.874977 -120.855646 323 30332ft 420kts
20-Dec-19 10:40 35.972874 -120.933111 323 30330ft 421kts
20-Dec-19 10:41 36.067569 -121.017542 317 29558ft 431kts
20-Dec-19 10:42 36.168137 -121.113325 318 27610ft 465kts
20-Dec-19 10:43 36.263176 -121.203851 316 25611ft 405kts
20-Dec-19 10:44 36.350083 -121.287130 316 22885ft 390kts
20-Dec-19 10:45 36.436206 -121.370251 317 19625ft 386kts
20-Dec-19 10:46 36.523363 -121.440697 334 17318ft 373kts
20-Dec-19 10:47 36.620572 -121.482135 337 14731ft 368kts
20-Dec-19 10:49 36.717905 -121.523276 338 11638ft 368kts
20-Dec-19 10:50 36.809280 -121.562068 339 10366ft 324kts
20-Dec-19 10:51 36.891435 -121.597044 341 9048ft 308kts
20-Dec-19 10:52 36.970592 -121.630615 338 7519ft 291kts
20-Dec-19 10:53 37.043490 -121.661623 338 6113ft 274kts
20-Dec-19 10:54 37.111667 -121.690634 339 5371ft 242kts
20-Dec-19 10:55 37.174291 -121.718459 321 4159ft 239kts
20-Dec-19 10:56 37.220637 -121.771069 318 3428ft 215kts
20-Dec-19 10:57 37.261888 -121.816233 319 2371ft 166kts
20-Dec-19 10:58 37.294408 -121.851970 318 1715ft 160kts
20-Dec-19 10:59 37.323973 -121.883939 317 945ft 134kts
20-Dec-19 11:00 37.351024 -121.914027 318 265ft 127kts
20-Dec-19 11:01 37.368277 -121.932454 3 45ft 18kts
20-Dec-19 11:02 37.367790 -121.929625 139 47ft 14kts
20-Dec-19 11:03 37.366543 -121.927121 48 50ft 2kts
20-Dec-19 11:04 37.366552 -121.927109 48 50ft 0kts
20-Dec-19 11:05 37.366552 -121.927109 48 50ft 0kts
20-Dec-19 11:06 37.366552 -121.927109 48 50ft 0kts
20-Dec-19 11:07 37.366552 -121.927109 48 50ft 0kts
20-Dec-19 11:07 37.366552 -121.927109 48 50ft 0kts
20-Dec-19 11:09 37.366552 -121.927109 48 50ft 0kts
20-Dec-19 11:10 37.366552 -121.927109 48 50ft 0kts
20-Dec-19 11:10 37.366552 -121.927109 48 50ft 0kts
20-Dec-19 11:12 37.366552 -121.927109 48 50ft 0kts
20-Dec-19 11:12 37.366552 -121.927109 48 50ft 0kts
20-Dec-19 11:13 37.366552 -121.927109 48 50ft 0kts
20-Dec-19 11:14 37.366552 -121.927109 48 50ft 0kts

Navigation Log

Ident Type
Flight plan parsing failed, navigation log unavailable